Griffithville, Arkansas
Current Conditions -  °F | °C
As of 5:29 AM on Tuesday 21 Oct 2014 (Local Time) from KSRC Reporting Station
Haze Haze  
Wind Chill: 52°   Ceiling: Unl
Heat Index: 52°   Visibility: 3mi
Dew Point: 52°   Wind: 3mph
Humidity: 100%   Direction: 360°N
Pressure: 30.07"   Gusts: NA
Location:  35.12°N, 91.65°W
Report Text: KSRC 211029Z AUTO 36003KT 3SM BR CLR 11/11 A3007 RMK AO2 TSNO
Loading
Personal Weather Stations






























Interactive Weather Map New forecast layout! Learn more

10-Day Weather Forecast

Advertisements
Track Severe Weather on mobile